createdAt,value
2018-05-11T00:00:18.877Z,99443.95
2018-05-11T00:02:46.474Z,99451.52
2018-05-11T00:05:14.070Z,99467.65
2018-05-11T00:07:41.695Z,99461.26
2018-05-11T00:10:09.294Z,99463.47
2018-05-11T00:12:36.913Z,99463.66
2018-05-11T00:15:04.560Z,99478.16
2018-05-11T00:17:32.156Z,99472.67
2018-05-11T00:19:59.759Z,99481.02
2018-05-11T00:22:27.505Z,99480.39
2018-05-11T00:24:55.089Z,99476.73
2018-05-11T00:27:22.684Z,99487.45
2018-05-11T00:29:50.419Z,99489.44
2018-05-11T00:32:18.007Z,99486.28
2018-05-11T00:34:45.617Z,99495.39
2018-05-11T00:37:13.283Z,99498.28
2018-05-11T00:39:40.879Z,99498.13
2018-05-11T00:42:08.465Z,99502.81
2018-05-11T00:44:36.093Z,99511.33
2018-05-11T00:47:03.688Z,99505.54
2018-05-11T00:49:31.278Z,99515.42
2018-05-11T00:51:58.929Z,99517.98
2018-05-11T00:54:26.537Z,99524.78
2018-05-11T00:56:54.139Z,99530.52
2018-05-11T00:59:21.815Z,99534.31
2018-05-11T01:01:49.405Z,99532.34
2018-05-11T01:04:17.064Z,99535.10
2018-05-11T01:06:44.706Z,99537.27
2018-05-11T01:09:12.300Z,99544.48
2018-05-11T01:11:39.899Z,99538.94
2018-05-11T01:14:07.519Z,99541.78
2018-05-11T01:16:35.113Z,99543.31
2018-05-11T01:19:02.712Z,99544.34
2018-05-11T01:21:30.352Z,99546.70
2018-05-11T01:23:57.949Z,99549.80
2018-05-11T01:26:25.547Z,99546.50
2018-05-11T01:28:54.054Z,99544.17
2018-05-11T01:31:21.660Z,99541.78
2018-05-11T01:33:49.252Z,99539.08
2018-05-11T01:36:16.861Z,99538.67
2018-05-11T01:38:44.483Z,99536.77
2018-05-11T01:41:12.078Z,99538.88
2018-05-11T01:43:39.711Z,99537.63
2018-05-11T01:46:07.315Z,99536.94
2018-05-11T01:48:34.909Z,99533.56
2018-05-11T01:51:02.538Z,99527.87
2018-05-11T01:53:30.135Z,99525.20
2018-05-11T01:55:57.725Z,99520.07
2018-05-11T01:58:25.364Z,99515.38
2018-05-11T02:00:52.968Z,99512.69
2018-05-11T02:03:20.585Z,99502.55
2018-05-11T02:05:48.204Z,99489.25
2018-05-11T02:08:15.797Z,99488.30
2018-05-11T02:10:43.384Z,99489.27
2018-05-11T02:13:11.003Z,99492.46
2018-05-11T02:15:38.600Z,99491.50
2018-05-11T02:18:06.200Z,99492.94
2018-05-11T02:20:33.843Z,99501.16
2018-05-11T02:23:01.436Z,99506.80
2018-05-11T02:25:29.033Z,99506.75
2018-05-11T02:27:56.665Z,99507.95
2018-05-11T02:30:24.268Z,99514.90
2018-05-11T02:32:51.882Z,99512.41
2018-05-11T02:35:19.512Z,99513.84
2018-05-11T02:37:47.129Z,99522.54
2018-05-11T02:40:14.716Z,99521.14
2018-05-11T02:42:42.361Z,99525.39
2018-05-11T02:45:09.957Z,99524.64
2018-05-11T02:47:37.552Z,99531.81
2018-05-11T02:50:05.179Z,99527.63
2018-05-11T02:52:32.775Z,99528.58
2018-05-11T02:55:00.365Z,99528.27
2018-05-11T02:57:27.995Z,99533.70
2018-05-11T02:59:55.589Z,99541.69
2018-05-11T03:02:23.221Z,99545.75
2018-05-11T03:04:50.845Z,99546.98
2018-05-11T03:07:18.479Z,99553.38
2018-05-11T03:09:46.076Z,99558.11
2018-05-11T03:12:13.703Z,99565.53
2018-05-11T03:14:41.307Z,99556.34
2018-05-11T03:17:08.975Z,99557.09
2018-05-11T03:19:36.578Z,99562.84
2018-05-11T03:22:04.184Z,99567.03
2018-05-11T03:24:31.783Z,99570.33
2018-05-11T03:26:59.419Z,99576.28
2018-05-11T03:29:27.105Z,99579.13
2018-05-11T03:31:54.720Z,99588.11
2018-05-11T03:34:22.354Z,99591.27
2018-05-11T03:36:49.961Z,99595.59
2018-05-11T03:39:17.585Z,99601.48
2018-05-11T03:41:45.216Z,99603.13
2018-05-11T03:44:12.821Z,99604.80
2018-05-11T03:46:40.430Z,99611.41
2018-05-11T03:49:08.076Z,99611.13
2018-05-11T03:51:35.689Z,99617.64
2018-05-11T03:54:03.284Z,99617.09
2018-05-11T03:56:30.910Z,99611.20
2018-05-11T03:58:58.505Z,99621.42
2018-05-11T04:01:38.044Z,99621.23
2018-05-11T04:04:17.351Z,99626.16
2018-05-11T04:06:56.701Z,99630.54
2018-05-11T04:09:24.296Z,99633.23
2018-05-11T04:11:51.905Z,99633.92
2018-05-11T04:14:19.553Z,99635.67
2018-05-11T04:16:47.144Z,99626.75
2018-05-11T04:19:14.801Z,99633.92
2018-05-11T04:21:42.444Z,99638.66
2018-05-11T04:24:10.044Z,99633.70
2018-05-11T04:26:37.636Z,99633.09
2018-05-11T04:29:05.265Z,99629.33
2018-05-11T04:31:32.860Z,99632.70
2018-05-11T04:34:00.469Z,99640.27
2018-05-11T04:36:28.093Z,99645.66
2018-05-11T04:38:55.693Z,99644.93
2018-05-11T04:41:23.451Z,99650.61
2018-05-11T04:43:51.093Z,99653.46
2018-05-11T04:46:18.682Z,99651.80
2018-05-11T04:48:46.280Z,99653.13
2018-05-11T04:51:13.919Z,99648.86
2018-05-11T04:53:41.523Z,99648.53
2018-05-11T04:56:09.175Z,99652.42
2018-05-11T04:58:36.906Z,99657.12
2018-05-11T05:01:04.523Z,99653.42
2018-05-11T05:03:32.138Z,99652.01
2018-05-11T05:05:59.764Z,99650.75
2018-05-11T05:08:27.356Z,99642.16
2018-05-11T05:10:54.943Z,99647.02
2018-05-11T05:13:22.557Z,99657.20
2018-05-11T05:15:50.142Z,99653.52
2018-05-11T05:18:17.747Z,99667.14
2018-05-11T05:20:45.375Z,99667.21
2018-05-11T05:23:12.970Z,99667.98
2018-05-11T05:25:40.557Z,99673.19
2018-05-11T05:28:08.166Z,99676.84
2018-05-11T05:30:35.748Z,99676.67
2018-05-11T05:33:03.394Z,99674.59
2018-05-11T05:35:30.997Z,99676.56
2018-05-11T05:37:58.584Z,99674.98
2018-05-11T05:40:26.163Z,99680.28
2018-05-11T05:42:53.825Z,99677.20
2018-05-11T05:45:21.413Z,99679.72
2018-05-11T05:47:49.025Z,99686.56
2018-05-11T05:50:16.653Z,99677.91
2018-05-11T05:52:44.236Z,99684.15
2018-05-11T05:55:11.821Z,99679.98
2018-05-11T05:57:39.440Z,99679.16
2018-05-11T06:00:07.032Z,99679.55
2018-05-11T06:02:34.710Z,99685.61
2018-05-11T06:05:02.271Z,99685.44
2018-05-11T06:07:29.875Z,99688.69
2018-05-11T06:09:57.460Z,99683.67
2018-05-11T06:12:25.084Z,99685.72
2018-05-11T06:14:52.664Z,99684.91
2018-05-11T06:17:20.241Z,99685.48
2018-05-11T06:19:47.866Z,99688.16
2018-05-11T06:22:15.447Z,99690.78
2018-05-11T06:24:43.034Z,99697.14
2018-05-11T06:27:10.649Z,99693.73
2018-05-11T06:29:38.225Z,99698.77
2018-05-11T06:32:05.836Z,99693.61
2018-05-11T06:34:33.479Z,99688.67
2018-05-11T06:37:01.068Z,99688.90
2018-05-11T06:39:28.648Z,99689.11
2018-05-11T06:41:56.278Z,99687.55
2018-05-11T06:44:23.862Z,99682.39
2018-05-11T06:46:51.442Z,99674.70
2018-05-11T06:49:19.133Z,99671.29
2018-05-11T06:51:46.722Z,99678.83
2018-05-11T06:54:14.296Z,99675.28
2018-05-11T06:56:41.914Z,99674.91
2018-05-11T06:59:09.491Z,99678.67
2018-05-11T07:01:37.154Z,99672.03
2018-05-11T07:04:04.745Z,99672.48
2018-05-11T07:06:32.338Z,99670.06
2018-05-11T07:08:59.916Z,99668.27
2018-05-11T07:11:27.537Z,99677.84
2018-05-11T07:13:55.118Z,99673.41
2018-05-11T07:16:22.706Z,99672.56
2018-05-11T07:18:50.322Z,99674.97
2018-05-11T07:21:17.926Z,99679.65
2018-05-11T07:23:45.503Z,99677.14
2018-05-11T07:26:13.124Z,99673.97
2018-05-11T07:28:40.716Z,99672.81
2018-05-11T07:31:08.306Z,99671.98
2018-05-11T07:33:35.927Z,99670.91
2018-05-11T07:36:03.602Z,99667.98
2018-05-11T07:38:31.194Z,99671.01
2018-05-11T07:40:58.823Z,99662.95
2018-05-11T07:43:26.537Z,99662.23
2018-05-11T07:45:54.030Z,99665.17
2018-05-11T07:48:21.656Z,99670.69
2018-05-11T07:50:49.249Z,99663.33
2018-05-11T07:53:16.838Z,99661.78
2018-05-11T07:55:44.455Z,99662.37
2018-05-11T07:58:12.036Z,99653.06
2018-05-11T08:00:39.632Z,99661.37
2018-05-11T08:03:07.253Z,99660.12
2018-05-11T08:05:34.846Z,99663.27
2018-05-11T08:08:02.416Z,99666.98
2018-05-11T08:10:30.074Z,99667.14
2018-05-11T08:12:57.650Z,99669.40
2018-05-11T08:15:25.235Z,99664.45
2018-05-11T08:17:52.855Z,99663.95
2018-05-11T08:20:20.436Z,99660.19
2018-05-11T08:22:48.014Z,99663.38
2018-05-11T08:25:15.618Z,99670.39
2018-05-11T08:27:43.192Z,99666.98
2018-05-11T08:30:10.776Z,99664.65
2018-05-11T08:32:38.396Z,99675.78
2018-05-11T08:35:05.984Z,99669.26
2018-05-11T08:37:33.573Z,99667.96
2018-05-11T08:40:01.201Z,99674.07
2018-05-11T08:42:28.780Z,99682.69
2018-05-11T08:44:56.374Z,99684.52
2018-05-11T08:47:23.991Z,99686.73
2018-05-11T08:49:51.581Z,99687.08
2018-05-11T08:52:19.169Z,99690.25
2018-05-11T08:54:46.800Z,99685.53
2018-05-11T08:57:14.430Z,99691.08
2018-05-11T08:59:42.004Z,99694.42
2018-05-11T09:02:09.613Z,99694.51
2018-05-11T09:04:37.205Z,99695.16
2018-05-11T09:07:04.800Z,99694.82
2018-05-11T09:09:32.437Z,99690.56
2018-05-11T09:12:00.027Z,99686.50
2018-05-11T09:14:27.611Z,99680.05
2018-05-11T09:16:55.224Z,99685.59
2018-05-11T09:19:22.857Z,99682.28
2018-05-11T09:21:50.450Z,99684.03
2018-05-11T09:24:18.084Z,99686.03
2018-05-11T09:26:45.693Z,99682.84
2018-05-11T09:29:13.280Z,99679.91
2018-05-11T09:31:40.921Z,99676.77
2018-05-11T09:34:08.499Z,99675.88
2018-05-11T09:36:36.089Z,99674.73
2018-05-11T09:39:03.817Z,99676.80
2018-05-11T09:41:31.404Z,99679.80
2018-05-11T09:43:58.983Z,99682.47
2018-05-11T09:46:26.687Z,99681.73
2018-05-11T09:48:54.289Z,99677.47
2018-05-11T09:51:21.881Z,99682.42
2018-05-11T09:53:49.501Z,99684.09
2018-05-11T09:56:17.100Z,99691.53
2018-05-11T09:58:44.701Z,99693.57
2018-05-11T10:01:12.333Z,99690.54
2018-05-11T10:03:39.918Z,99684.20
2018-05-11T10:06:07.571Z,99687.34
2018-05-11T10:08:35.177Z,99695.27
2018-05-11T10:11:02.796Z,99691.48
2018-05-11T10:13:30.384Z,99693.21
2018-05-11T10:15:58.005Z,99693.49
2018-05-11T10:18:25.592Z,99700.91
2018-05-11T10:20:53.194Z,99691.84
2018-05-11T10:23:20.935Z,99697.96
2018-05-11T10:25:48.589Z,99703.06
2018-05-11T10:28:16.160Z,99700.00
2018-05-11T10:30:43.797Z,99694.98
2018-05-11T10:33:11.382Z,99692.16
2018-05-11T10:35:38.979Z,99697.23
2018-05-11T10:38:06.601Z,99696.77
2018-05-11T10:40:34.189Z,99704.69
2018-05-11T10:43:01.773Z,99703.62
2018-05-11T10:45:29.397Z,99704.57
2018-05-11T10:47:56.976Z,99704.83
2018-05-11T10:50:24.568Z,99703.47
2018-05-11T10:52:52.195Z,99706.41
2018-05-11T10:55:19.821Z,99713.37
2018-05-11T10:57:47.426Z,99714.34
2018-05-11T11:00:15.064Z,99725.61
2018-05-11T11:02:42.722Z,99720.63
2018-05-11T11:05:10.282Z,99715.81
2018-05-11T11:07:37.900Z,99721.39
2018-05-11T11:10:05.487Z,99722.34
2018-05-11T11:12:33.066Z,99728.32
2018-05-11T11:15:00.678Z,99730.58
2018-05-11T11:17:28.310Z,99727.43
2018-05-11T11:19:55.942Z,99733.81
2018-05-11T11:22:23.586Z,99729.28
2018-05-11T11:24:51.156Z,99733.84
2018-05-11T11:27:18.732Z,99735.23
2018-05-11T11:29:46.344Z,99729.07
2018-05-11T11:32:13.915Z,99732.73
2018-05-11T11:34:41.579Z,99736.72
2018-05-11T11:37:09.155Z,99738.80
2018-05-11T11:39:36.736Z,99739.64
2018-05-11T11:42:04.349Z,99740.30
2018-05-11T11:44:31.934Z,99739.91
2018-05-11T11:46:59.549Z,99742.30
2018-05-11T11:49:27.128Z,99743.02
2018-05-11T11:51:54.745Z,99742.78
2018-05-11T11:54:22.315Z,99743.94
2018-05-11T11:56:49.907Z,99742.22
2018-05-11T11:59:17.531Z,99740.69
2018-05-11T12:01:45.121Z,99742.42
2018-05-11T12:04:12.745Z,99736.00
2018-05-11T12:06:40.456Z,99736.48
2018-05-11T12:09:08.024Z,99739.63
2018-05-11T12:11:35.648Z,99732.71
2018-05-11T12:14:03.267Z,99739.26
2018-05-11T12:16:30.849Z,99731.43
2018-05-11T12:18:58.454Z,99734.89
2018-05-11T12:21:26.085Z,99734.20
2018-05-11T12:23:53.803Z,99724.66
2018-05-11T12:26:21.487Z,99729.49
2018-05-11T12:28:49.900Z,99726.67
2018-05-11T12:31:17.508Z,99721.53
2018-05-11T12:33:45.108Z,99725.18
2018-05-11T12:36:12.729Z,99724.17
2018-05-11T12:38:40.309Z,99728.53
2018-05-11T12:41:07.947Z,99717.09
2018-05-11T12:43:35.579Z,99715.28
2018-05-11T12:46:03.246Z,99711.92
2018-05-11T12:48:30.793Z,99709.83
2018-05-11T12:50:58.412Z,99710.39
2018-05-11T12:53:26.047Z,99707.39
2018-05-11T12:55:53.709Z,99706.84
2018-05-11T12:58:21.330Z,99706.02
2018-05-11T13:00:48.908Z,99698.58
2018-05-11T13:03:16.497Z,99704.36
2018-05-11T13:05:44.123Z,99697.13
2018-05-11T13:08:11.761Z,99706.05
2018-05-11T13:10:39.365Z,99707.94
2018-05-11T13:13:06.981Z,99712.86
2018-05-11T13:15:34.569Z,99706.32
2018-05-11T13:18:02.161Z,99704.22
2018-05-11T13:20:29.808Z,99712.00
2018-05-11T13:22:58.463Z,99709.73
2018-05-11T13:25:26.058Z,99702.55
2018-05-11T13:27:53.706Z,99693.26
2018-05-11T13:30:21.319Z,99685.05
2018-05-11T13:32:48.921Z,99683.74
2018-05-11T13:35:16.556Z,99686.40
2018-05-11T13:37:44.165Z,99674.41
2018-05-11T13:40:11.746Z,99668.98
2018-05-11T13:42:39.356Z,99667.92
2018-05-11T13:45:07.913Z,99662.14
2018-05-11T13:47:35.507Z,99667.98
2018-05-11T13:50:03.132Z,99669.70
2018-05-11T13:52:30.709Z,99665.55
2018-05-11T13:54:58.294Z,99658.49
2018-05-11T13:57:25.915Z,99661.01
2018-05-11T13:59:53.537Z,99659.75
2018-05-11T14:02:21.124Z,99650.00
2018-05-11T14:04:48.788Z,99650.50
2018-05-11T14:07:16.368Z,99656.67
2018-05-11T14:09:43.945Z,99651.09
2018-05-11T14:12:11.572Z,99649.41
2018-05-11T14:14:39.189Z,99646.44
2018-05-11T14:17:06.771Z,99644.25
2018-05-11T14:19:34.408Z,99644.25
2018-05-11T14:22:01.998Z,99638.87
2018-05-11T14:24:29.594Z,99641.00
2018-05-11T14:26:57.231Z,99638.97
2018-05-11T14:29:24.831Z,99633.55
2018-05-11T14:31:52.453Z,99635.43
2018-05-11T14:34:22.180Z,99630.34
2018-05-11T14:36:49.791Z,99632.44
2018-05-11T14:39:22.013Z,99622.67
2018-05-11T14:41:49.633Z,99627.64
2018-05-11T14:44:19.001Z,99635.57
2018-05-11T14:46:46.612Z,99638.09
2018-05-11T14:49:14.332Z,99637.83
2018-05-11T14:51:41.991Z,99635.35
2018-05-11T14:54:09.710Z,99639.64
2018-05-11T14:56:37.335Z,99642.13
2018-05-11T14:59:04.945Z,99645.03
2018-05-11T15:01:32.596Z,99641.55
2018-05-11T15:04:00.218Z,99637.31
2018-05-11T15:06:27.871Z,99643.55
2018-05-11T15:08:55.447Z,99647.30
2018-05-11T15:11:23.077Z,99649.74
2018-05-11T15:13:50.672Z,99652.85
2018-05-11T15:16:18.248Z,99647.21
2018-05-11T15:18:45.890Z,99646.38
2018-05-11T15:21:13.473Z,99639.48
2018-05-11T15:23:41.062Z,99637.72
2018-05-11T15:26:08.726Z,99649.30
2018-05-11T15:28:36.321Z,99647.11
2018-05-11T15:31:03.963Z,99651.77
2018-05-11T15:33:31.594Z,99653.69
2018-05-11T15:35:59.756Z,99652.09
2018-05-11T15:38:27.331Z,99647.00
2018-05-11T15:40:55.052Z,99653.27
2018-05-11T15:43:22.642Z,99656.78
2018-05-11T15:45:50.219Z,99655.45
2018-05-11T15:48:17.832Z,99658.80
2018-05-11T15:50:45.417Z,99657.73
2018-05-11T15:53:13.000Z,99661.33
2018-05-11T15:55:40.616Z,99662.55
2018-05-11T15:58:08.201Z,99666.73
2018-05-11T16:00:35.825Z,99674.60
2018-05-11T16:03:03.477Z,99671.17
2018-05-11T16:05:31.224Z,99667.20
2018-05-11T16:07:58.849Z,99671.97
2018-05-11T16:10:26.468Z,99676.45
2018-05-11T16:12:54.129Z,99680.20
2018-05-11T16:15:21.700Z,99681.61
2018-05-11T16:17:49.319Z,99682.94
2018-05-11T16:20:16.933Z,99682.53
2018-05-11T16:22:44.518Z,99683.53
2018-05-11T16:25:12.118Z,99688.52
2018-05-11T16:27:39.683Z,99684.89
2018-05-11T16:30:07.268Z,99682.53
2018-05-11T16:32:34.968Z,99682.48
2018-05-11T16:35:02.556Z,99683.23
2018-05-11T16:37:30.120Z,99677.80
2018-05-11T16:39:57.745Z,99680.78
2018-05-11T16:42:25.320Z,99675.92
2018-05-11T16:44:52.911Z,99682.93
2018-05-11T16:47:20.560Z,99683.81
2018-05-11T16:49:48.160Z,99691.14
2018-05-11T16:52:15.756Z,99694.28
2018-05-11T16:54:43.382Z,99695.83
2018-05-11T16:57:10.968Z,99702.72
2018-05-11T16:59:38.575Z,99708.73
2018-05-11T17:02:06.306Z,99712.86
2018-05-11T17:04:33.898Z,99712.32
2018-05-11T17:07:01.488Z,99716.57
2018-05-11T17:09:29.105Z,99714.13
2018-05-11T17:11:56.692Z,99712.89
2018-05-11T17:14:24.282Z,99719.10
2018-05-11T17:16:51.898Z,99743.38
2018-05-11T17:19:19.481Z,99746.25
2018-05-11T17:21:47.072Z,99754.14
2018-05-11T17:24:14.702Z,99746.77
2018-05-11T17:26:42.293Z,99749.81
2018-05-11T17:29:09.868Z,99747.02
2018-05-11T17:31:37.485Z,99753.27
2018-05-11T17:34:05.060Z,99752.05
2018-05-11T17:36:32.702Z,99755.86
2018-05-11T17:39:00.321Z,99754.27
2018-05-11T17:41:27.919Z,99757.52
2018-05-11T17:43:55.507Z,99756.97
2018-05-11T17:46:23.134Z,99762.41
2018-05-11T17:48:50.717Z,99768.52
2018-05-11T17:51:18.299Z,99774.88
2018-05-11T17:53:45.963Z,99777.48
2018-05-11T17:56:13.590Z,99784.88
2018-05-11T17:58:41.186Z,99782.84
2018-05-11T18:01:08.819Z,99784.42
2018-05-11T18:03:36.425Z,99788.61
2018-05-11T18:06:04.021Z,99799.06
2018-05-11T18:08:31.641Z,99798.76
2018-05-11T18:10:59.241Z,99809.04
2018-05-11T18:13:26.868Z,99810.27
2018-05-11T18:15:54.490Z,99814.33
2018-05-11T18:18:22.065Z,99818.70
2018-05-11T18:20:49.646Z,99823.07
2018-05-11T18:23:17.256Z,99819.27
2018-05-11T18:25:44.843Z,99817.91
2018-05-11T18:28:12.564Z,99812.24
2018-05-11T18:30:40.214Z,99820.06
2018-05-11T18:33:07.780Z,99821.90
2018-05-11T18:35:35.365Z,99825.80
2018-05-11T18:38:02.984Z,99833.05
2018-05-11T18:40:30.568Z,99835.41
2018-05-11T18:42:58.190Z,99838.41
2018-05-11T18:45:25.867Z,99843.28
2018-05-11T18:47:53.477Z,99842.19
2018-05-11T18:50:21.071Z,99840.16
2018-05-11T18:52:48.696Z,99840.03
2018-05-11T18:55:16.318Z,99840.30
2018-05-11T18:57:43.927Z,99837.77
2018-05-11T19:00:11.613Z,99833.16
2018-05-11T19:02:39.193Z,99834.06
2018-05-11T19:05:06.740Z,99837.44
2018-05-11T19:07:34.396Z,99835.23
2018-05-11T19:10:01.981Z,99827.87
2018-05-11T19:12:29.561Z,99838.92
2018-05-11T19:14:57.185Z,99843.70
2018-05-11T19:17:24.764Z,99840.73
2018-05-11T19:19:52.359Z,99838.56
2018-05-11T19:22:20.043Z,99845.30
2018-05-11T19:24:48.825Z,99848.18
2018-05-11T19:27:16.405Z,99854.36
2018-05-11T19:29:44.005Z,99851.97
2018-05-11T19:32:11.597Z,99852.91
2018-05-11T19:34:39.246Z,99854.16
2018-05-11T19:37:06.856Z,99856.95
2018-05-11T19:39:34.449Z,99847.92
2018-05-11T19:42:02.029Z,99849.98
2018-05-11T19:44:29.656Z,99853.03
2018-05-11T19:46:57.239Z,99853.60
2018-05-11T19:49:25.787Z,99857.30
2018-05-11T19:51:53.420Z,99857.84
2018-05-11T19:54:20.997Z,99868.62
2018-05-11T19:56:48.579Z,99864.91
2018-05-11T19:59:16.218Z,99866.27
2018-05-11T20:01:43.810Z,99876.56
2018-05-11T20:04:11.422Z,99875.75
2018-05-11T20:06:39.129Z,99881.30
2018-05-11T20:09:06.731Z,99883.09
2018-05-11T20:11:34.327Z,99885.37
2018-05-11T20:14:01.917Z,99891.77
2018-05-11T20:16:29.501Z,99888.09
2018-05-11T20:18:57.069Z,99896.33
2018-05-11T20:21:24.680Z,99894.56
2018-05-11T20:23:52.289Z,99885.63
2018-05-11T20:26:19.857Z,99898.90
2018-05-11T20:28:48.015Z,99898.67
2018-05-11T20:31:16.440Z,99900.05
2018-05-11T20:33:44.917Z,99891.36
2018-05-11T20:36:12.535Z,99896.94
2018-05-11T20:38:45.548Z,99896.20
2018-05-11T20:41:19.373Z,99902.88
2018-05-11T20:43:52.885Z,99904.48
2018-05-11T20:46:25.282Z,99908.69
2018-05-11T20:48:54.147Z,99904.18
2018-05-11T20:51:26.410Z,99904.61
2018-05-11T20:53:54.001Z,99908.95
2018-05-11T20:56:21.635Z,99902.05
2018-05-11T20:58:49.222Z,99907.28
2018-05-11T21:01:16.811Z,99905.00
2018-05-11T21:03:44.414Z,99913.54
2018-05-11T21:06:14.146Z,99918.09
2018-05-11T21:08:41.876Z,99926.28
2018-05-11T21:11:09.482Z,99916.28
2018-05-11T21:13:37.058Z,99920.98
2018-05-11T21:16:04.636Z,99921.75
2018-05-11T21:18:32.253Z,99925.14
2018-05-11T21:20:59.832Z,99928.41
2018-05-11T21:23:27.422Z,99923.96
2018-05-11T21:25:55.066Z,99932.41
2018-05-11T21:28:22.683Z,99933.13
2018-05-11T21:30:50.328Z,99935.86
2018-05-11T21:33:17.955Z,99939.42
2018-05-11T21:35:45.593Z,99939.67
2018-05-11T21:38:13.205Z,99946.39
2018-05-11T21:40:40.839Z,99945.88
2018-05-11T21:43:08.469Z,99942.23
2018-05-11T21:45:36.075Z,99943.70
2018-05-11T21:48:08.700Z,99949.12
2018-05-11T21:50:42.744Z,99952.62
2018-05-11T21:53:12.224Z,99954.80
2018-05-11T21:55:39.828Z,99951.38
2018-05-11T21:58:07.393Z,99946.58
2018-05-11T22:00:35.030Z,99954.64
2018-05-11T22:03:02.613Z,99952.98
2018-05-11T22:05:30.184Z,99955.79
2018-05-11T22:07:57.797Z,99953.65
2018-05-11T22:10:25.387Z,99954.03
2018-05-11T22:12:52.978Z,99950.44
2018-05-11T22:15:20.592Z,99943.98
2018-05-11T22:17:48.176Z,99942.20
2018-05-11T22:20:15.773Z,99943.81
2018-05-11T22:22:43.425Z,99950.95
2018-05-11T22:25:11.012Z,99949.55
2018-05-11T22:27:38.606Z,99948.59
2018-05-11T22:30:06.244Z,99952.48
2018-05-11T22:32:33.815Z,99960.90
2018-05-11T22:35:01.400Z,99958.50
2018-05-11T22:37:29.027Z,99959.38
2018-05-11T22:39:56.628Z,99945.31
2018-05-11T22:42:24.208Z,99959.29
2018-05-11T22:44:51.825Z,99960.43
2018-05-11T22:47:19.399Z,99953.88
2018-05-11T22:49:46.979Z,99949.17
2018-05-11T22:52:14.619Z,99949.69
2018-05-11T22:54:42.201Z,99948.95
2018-05-11T22:57:09.793Z,99947.85
2018-05-11T22:59:37.397Z,99955.13
2018-05-11T23:02:04.969Z,99952.93
2018-05-11T23:04:32.549Z,99955.15
2018-05-11T23:07:00.155Z,99957.16
2018-05-11T23:09:27.743Z,99954.59
2018-05-11T23:11:55.323Z,99956.48
2018-05-11T23:16:55.703Z,99965.53
2018-05-11T23:19:23.327Z,99960.06
2018-05-11T23:21:50.909Z,99959.41
2018-05-11T23:24:18.489Z,99963.31
2018-05-11T23:26:46.106Z,99960.55
2018-05-11T23:29:13.688Z,99962.29
2018-05-11T23:31:41.264Z,99961.28
2018-05-11T23:34:08.884Z,99965.22
2018-05-11T23:36:36.464Z,99965.11
2018-05-11T23:39:04.123Z,99965.41
2018-05-11T23:41:31.734Z,99967.36
2018-05-11T23:43:59.328Z,99963.08
2018-05-11T23:46:26.914Z,99972.24
2018-05-11T23:48:54.529Z,99968.22
2018-05-11T23:51:22.110Z,99959.89
2018-05-11T23:53:49.683Z,99964.09
2018-05-11T23:56:17.305Z,99950.30
2018-05-11T23:58:44.892Z,99954.09
